createdAt,value
2018-03-07T00:01:34.250Z,96097.02
2018-03-07T00:04:01.800Z,96096.41
2018-03-07T00:06:29.329Z,96100.13
2018-03-07T00:08:57.077Z,96099.61
2018-03-07T00:11:24.611Z,96111.24
2018-03-07T00:13:52.246Z,96107.52
2018-03-07T00:16:19.818Z,96112.90
2018-03-07T00:18:47.354Z,96109.75
2018-03-07T00:21:14.874Z,96107.58
2018-03-07T00:23:42.430Z,96117.83
2018-03-07T00:26:09.942Z,96121.63
2018-03-07T00:28:37.475Z,96118.58
2018-03-07T00:31:05.085Z,96121.72
2018-03-07T00:33:32.702Z,96122.23
2018-03-07T00:36:00.254Z,96124.35
2018-03-07T00:38:27.795Z,96127.34
2018-03-07T00:40:55.350Z,96127.75
2018-03-07T00:43:23.283Z,96120.00
2018-03-07T00:45:50.926Z,96121.95
2018-03-07T00:48:18.464Z,96122.23
2018-03-07T00:50:46.031Z,96125.73
2018-03-07T00:53:13.579Z,96129.86
2018-03-07T00:55:41.108Z,96127.92
2018-03-07T00:58:08.618Z,96129.03
2018-03-07T01:00:36.179Z,96128.56
2018-03-07T01:03:03.748Z,96127.51
2018-03-07T01:05:32.120Z,96128.11
2018-03-07T01:07:59.881Z,96131.63
2018-03-07T01:10:27.598Z,96130.09
2018-03-07T01:12:55.107Z,96130.45
2018-03-07T01:15:22.654Z,96124.40
2018-03-07T01:17:50.237Z,96123.16
2018-03-07T01:20:19.566Z,96125.44
2018-03-07T01:22:47.110Z,96125.39
2018-03-07T01:25:31.460Z,96123.41
2018-03-07T01:27:59.021Z,96118.30
2018-03-07T01:30:26.757Z,96128.74
2018-03-07T01:32:54.637Z,96122.20
2018-03-07T01:35:22.171Z,96117.67
2018-03-07T01:37:49.736Z,96116.30
2018-03-07T01:40:17.371Z,96117.31
2018-03-07T01:42:45.135Z,96118.39
2018-03-07T01:45:12.670Z,96120.53
2018-03-07T01:47:40.254Z,96119.91
2018-03-07T01:50:07.809Z,96127.12
2018-03-07T01:52:35.336Z,96118.09
2018-03-07T01:55:02.857Z,96121.36
2018-03-07T01:57:30.379Z,96118.74
2018-03-07T01:59:57.909Z,96115.09
2018-03-07T02:02:25.533Z,96116.83
2018-03-07T02:04:53.703Z,96119.70
2018-03-07T02:07:21.219Z,96125.88
2018-03-07T02:09:48.741Z,96120.30
2018-03-07T02:12:16.287Z,96110.33
2018-03-07T02:14:43.824Z,96119.58
2018-03-07T02:17:11.336Z,96122.39
2018-03-07T02:19:39.205Z,96120.77
2018-03-07T02:22:06.979Z,96119.70
2018-03-07T02:24:34.503Z,96122.03
2018-03-07T02:27:02.042Z,96116.75
2018-03-07T02:29:29.616Z,96122.77
2018-03-07T02:31:57.544Z,96121.30
2018-03-07T02:34:25.074Z,96123.38
2018-03-07T02:36:53.397Z,96117.98
2018-03-07T02:39:21.127Z,96127.52
2018-03-07T02:41:48.810Z,96128.19
2018-03-07T02:44:16.855Z,96131.73
2018-03-07T02:46:45.600Z,96127.88
2018-03-07T02:49:13.157Z,96122.81
2018-03-07T02:51:40.698Z,96130.05
2018-03-07T02:54:08.210Z,96134.03
2018-03-07T02:56:36.385Z,96138.25
2018-03-07T02:59:03.887Z,96140.05
2018-03-07T03:01:31.448Z,96140.19
2018-03-07T03:03:59.005Z,96140.09
2018-03-07T03:06:26.567Z,96148.31
2018-03-07T03:08:54.066Z,96146.09
2018-03-07T03:11:21.608Z,96147.41
2018-03-07T03:13:49.139Z,96152.48
2018-03-07T03:16:16.634Z,96146.08
2018-03-07T03:18:44.126Z,96153.34
2018-03-07T03:21:11.707Z,96152.26
2018-03-07T03:23:39.277Z,96149.76
2018-03-07T03:26:06.831Z,96151.42
2018-03-07T03:28:34.383Z,96148.75
2018-03-07T03:31:01.956Z,96140.69
2018-03-07T03:33:29.478Z,96153.92
2018-03-07T03:35:57.562Z,96157.39
2018-03-07T03:38:25.061Z,96157.34
2018-03-07T03:40:53.385Z,96159.74
2018-03-07T03:43:21.242Z,96158.47
2018-03-07T03:45:48.945Z,96156.81
2018-03-07T03:48:16.493Z,96155.23
2018-03-07T03:50:44.183Z,96158.37
2018-03-07T03:53:11.769Z,96162.64
2018-03-07T03:55:39.289Z,96162.54
2018-03-07T03:58:06.859Z,96159.72
2018-03-07T04:00:34.368Z,96162.55
2018-03-07T04:03:01.925Z,96164.08
2018-03-07T04:05:29.445Z,96162.23
2018-03-07T04:07:56.976Z,96155.08
2018-03-07T04:10:24.503Z,96154.87
2018-03-07T04:12:52.041Z,96165.02
2018-03-07T04:15:19.601Z,96155.88
2018-03-07T04:17:47.150Z,96159.19
2018-03-07T04:20:14.656Z,96157.44
2018-03-07T04:22:43.073Z,96156.67
2018-03-07T04:25:10.652Z,96166.59
2018-03-07T04:27:38.248Z,96162.31
2018-03-07T04:30:05.781Z,96168.87
2018-03-07T04:32:33.275Z,96168.58
2018-03-07T04:35:00.849Z,96179.96
2018-03-07T04:37:28.374Z,96178.09
2018-03-07T04:39:56.246Z,96182.03
2018-03-07T04:42:24.031Z,96182.37
2018-03-07T04:44:51.550Z,96187.41
2018-03-07T04:47:20.679Z,96186.25
2018-03-07T04:49:48.353Z,96183.64
2018-03-07T04:52:16.590Z,96189.23
2018-03-07T04:54:44.124Z,96190.78
2018-03-07T04:57:11.645Z,96194.51
2018-03-07T04:59:39.481Z,96199.60
2018-03-07T05:02:07.815Z,96196.88
2018-03-07T05:04:35.418Z,96199.73
2018-03-07T05:07:02.956Z,96200.00
2018-03-07T05:09:30.521Z,96196.51
2018-03-07T05:11:58.065Z,96189.13
2018-03-07T05:14:25.906Z,96206.04
2018-03-07T05:16:53.810Z,96212.87
2018-03-07T05:19:21.675Z,96216.91
2018-03-07T05:21:49.227Z,96216.28
2018-03-07T05:24:16.793Z,96212.40
2018-03-07T05:26:44.319Z,96214.40
2018-03-07T05:29:11.873Z,96210.28
2018-03-07T05:31:39.407Z,96216.64
2018-03-07T05:34:06.926Z,96218.59
2018-03-07T05:36:34.471Z,96217.41
2018-03-07T05:39:02.746Z,96218.22
2018-03-07T05:41:30.456Z,96219.27
2018-03-07T05:43:57.994Z,96226.42
2018-03-07T05:46:25.503Z,96229.64
2018-03-07T05:48:53.048Z,96232.43
2018-03-07T05:51:20.620Z,96241.80
2018-03-07T05:53:48.159Z,96237.59
2018-03-07T05:56:15.677Z,96239.95
2018-03-07T05:58:43.214Z,96234.72
2018-03-07T06:01:10.808Z,96237.82
2018-03-07T06:03:38.483Z,96238.95
2018-03-07T06:06:06.316Z,96243.37
2018-03-07T06:08:33.893Z,96246.93
2018-03-07T06:11:01.407Z,96249.61
2018-03-07T06:13:28.986Z,96240.66
2018-03-07T06:15:56.515Z,96248.52
2018-03-07T06:18:24.054Z,96254.14
2018-03-07T06:20:51.582Z,96261.55
2018-03-07T06:23:19.085Z,96263.85
2018-03-07T06:25:46.850Z,96261.69
2018-03-07T06:28:14.591Z,96266.64
2018-03-07T06:30:42.152Z,96278.30
2018-03-07T06:33:09.688Z,96284.41
2018-03-07T06:35:37.613Z,96283.91
2018-03-07T06:38:05.197Z,96281.91
2018-03-07T06:40:32.812Z,96290.55
2018-03-07T06:43:00.361Z,96295.62
2018-03-07T06:45:27.976Z,96292.17
2018-03-07T06:47:55.675Z,96297.83
2018-03-07T06:50:23.205Z,96303.32
2018-03-07T06:52:50.881Z,96303.74
2018-03-07T06:55:19.112Z,96312.03
2018-03-07T06:57:46.630Z,96312.95
2018-03-07T07:00:14.279Z,96312.86
2018-03-07T07:02:41.806Z,96307.03
2018-03-07T07:05:09.333Z,96315.89
2018-03-07T07:07:36.855Z,96315.22
2018-03-07T07:10:04.620Z,96315.73
2018-03-07T07:12:32.275Z,96317.20
2018-03-07T07:14:59.863Z,96324.20
2018-03-07T07:17:27.385Z,96331.98
2018-03-07T07:19:54.947Z,96337.29
2018-03-07T07:22:22.458Z,96350.83
2018-03-07T07:24:49.989Z,96355.81
2018-03-07T07:27:17.515Z,96358.47
2018-03-07T07:29:45.040Z,96359.47
2018-03-07T07:32:12.547Z,96365.86
2018-03-07T07:34:40.465Z,96376.27
2018-03-07T07:37:07.994Z,96375.61
2018-03-07T07:39:35.632Z,96374.59
2018-03-07T07:42:03.170Z,96378.16
2018-03-07T07:44:31.269Z,96377.11
2018-03-07T07:46:58.835Z,96379.92
2018-03-07T07:49:26.500Z,96386.14
2018-03-07T07:51:54.066Z,96389.92
2018-03-07T07:54:21.625Z,96385.59
2018-03-07T07:56:49.152Z,96395.69
2018-03-07T07:59:16.723Z,96393.80
2018-03-07T08:01:44.254Z,96389.50
2018-03-07T08:04:11.788Z,96393.25
2018-03-07T08:06:39.301Z,96398.76
2018-03-07T08:09:06.988Z,96400.88
2018-03-07T08:11:34.494Z,96401.56
2018-03-07T08:14:02.018Z,96405.84
2018-03-07T08:16:30.021Z,96401.83
2018-03-07T08:18:58.093Z,96415.45
2018-03-07T08:21:25.614Z,96408.23
2018-03-07T08:23:54.394Z,96414.56
2018-03-07T08:26:21.903Z,96412.91
2018-03-07T08:28:49.392Z,96411.45
2018-03-07T08:31:16.917Z,96415.82
2018-03-07T08:33:44.473Z,96419.19
2018-03-07T08:36:11.969Z,96426.30
2018-03-07T08:38:39.540Z,96427.83
2018-03-07T08:41:07.623Z,96425.01
2018-03-07T08:43:35.170Z,96424.48
2018-03-07T08:46:02.765Z,96423.78
2018-03-07T08:48:30.281Z,96425.66
2018-03-07T08:50:57.816Z,96427.41
2018-03-07T08:53:26.489Z,96427.63
2018-03-07T08:55:55.590Z,96425.16
2018-03-07T08:58:23.345Z,96422.41
2018-03-07T09:00:51.378Z,96426.50
2018-03-07T09:03:18.999Z,96427.02
2018-03-07T09:05:46.550Z,96428.27
2018-03-07T09:08:14.042Z,96430.95
2018-03-07T09:10:41.549Z,96420.23
2018-03-07T09:13:09.067Z,96426.78
2018-03-07T09:15:36.840Z,96422.91
2018-03-07T09:18:04.320Z,96425.57
2018-03-07T09:20:31.812Z,96419.23
2018-03-07T09:22:59.377Z,96432.88
2018-03-07T09:25:28.135Z,96426.87
2018-03-07T09:27:56.708Z,96430.88
2018-03-07T09:30:28.398Z,96431.59
2018-03-07T09:32:56.380Z,96434.54
2018-03-07T09:35:24.025Z,96434.91
2018-03-07T09:37:51.542Z,96433.91
2018-03-07T09:40:19.075Z,96436.59
2018-03-07T09:42:46.609Z,96441.84
2018-03-07T09:45:14.887Z,96445.91
2018-03-07T09:47:42.475Z,96435.34
2018-03-07T09:50:10.075Z,96459.90
2018-03-07T09:52:37.605Z,96461.75
2018-03-07T09:55:05.115Z,96463.78
2018-03-07T09:57:32.814Z,96469.70
2018-03-07T10:00:00.427Z,96477.73
2018-03-07T10:02:28.023Z,96466.05
2018-03-07T10:04:56.400Z,96479.06
2018-03-07T10:07:24.023Z,96490.56
2018-03-07T10:09:51.956Z,96503.05
2018-03-07T10:12:20.453Z,96513.33
2018-03-07T10:14:47.961Z,96510.69
2018-03-07T10:17:15.476Z,96512.61
2018-03-07T10:19:43.934Z,96516.84
2018-03-07T10:22:11.420Z,96516.45
2018-03-07T10:24:38.950Z,96528.45
2018-03-07T10:27:06.578Z,96522.01
2018-03-07T10:29:35.051Z,96517.24
2018-03-07T10:32:02.588Z,96509.59
2018-03-07T10:34:30.103Z,96506.77
2018-03-07T10:36:57.849Z,96519.13
2018-03-07T10:39:25.377Z,96516.83
2018-03-07T10:41:53.974Z,96520.88
2018-03-07T10:44:21.526Z,96515.13
2018-03-07T10:46:49.044Z,96511.58
2018-03-07T10:49:16.614Z,96513.69
2018-03-07T10:52:07.027Z,96512.63
2018-03-07T10:54:34.655Z,96521.22
2018-03-07T10:57:02.331Z,96515.53
2018-03-07T10:59:29.897Z,96523.03
2018-03-07T11:01:57.445Z,96526.05
2018-03-07T11:04:24.961Z,96515.34
2018-03-07T11:06:52.481Z,96515.14
2018-03-07T11:09:20.083Z,96520.05
2018-03-07T11:11:47.644Z,96511.85
2018-03-07T11:14:16.366Z,96521.44
2018-03-07T11:16:44.092Z,96532.34
2018-03-07T11:19:11.652Z,96515.66
2018-03-07T11:21:39.452Z,96519.19
2018-03-07T11:24:07.373Z,96527.23
2018-03-07T11:26:35.673Z,96532.64
2018-03-07T11:29:03.252Z,96527.73
2018-03-07T11:31:30.810Z,96534.47
2018-03-07T11:33:58.637Z,96523.84
2018-03-07T11:36:26.140Z,96527.73
2018-03-07T11:38:53.696Z,96533.44
2018-03-07T11:41:21.220Z,96533.40
2018-03-07T11:43:50.199Z,96530.93
2018-03-07T11:46:18.026Z,96533.05
2018-03-07T11:48:45.519Z,96541.13
2018-03-07T11:51:13.048Z,96537.41
2018-03-07T11:53:40.538Z,96530.39
2018-03-07T11:56:09.767Z,96524.89
2018-03-07T11:58:40.357Z,96534.41
2018-03-07T12:01:09.744Z,96528.75
2018-03-07T12:03:40.395Z,96540.00
2018-03-07T12:06:09.859Z,96530.13
2018-03-07T12:08:37.739Z,96533.66
2018-03-07T12:11:05.559Z,96524.34
2018-03-07T12:13:34.624Z,96530.06
2018-03-07T12:16:02.148Z,96527.59
2018-03-07T12:18:30.475Z,96539.73
2018-03-07T12:20:57.956Z,96522.60
2018-03-07T12:23:25.465Z,96515.47
2018-03-07T12:25:54.371Z,96516.78
2018-03-07T12:28:22.290Z,96518.41
2018-03-07T12:30:51.508Z,96511.73
2018-03-07T12:33:19.513Z,96520.09
2018-03-07T12:35:47.202Z,96509.46
2018-03-07T12:38:14.731Z,96518.00
2018-03-07T12:40:42.261Z,96516.92
2018-03-07T12:43:11.004Z,96510.58
2018-03-07T12:45:40.187Z,96524.07
2018-03-07T12:48:07.712Z,96517.76
2018-03-07T12:50:38.204Z,96521.73
2018-03-07T12:53:06.201Z,96515.80
2018-03-07T12:55:33.732Z,96518.06
2018-03-07T12:58:01.232Z,96528.25
2018-03-07T13:00:30.390Z,96526.01
2018-03-07T13:03:00.544Z,96528.88
2018-03-07T13:05:28.327Z,96534.88
2018-03-07T13:07:55.989Z,96537.64
2018-03-07T13:10:24.589Z,96531.52
2018-03-07T13:12:54.392Z,96537.31
2018-03-07T13:15:36.574Z,96532.83
2018-03-07T13:18:04.135Z,96537.29
2018-03-07T13:20:32.901Z,96559.33
2018-03-07T13:23:00.542Z,96556.14
2018-03-07T13:25:28.075Z,96553.71
2018-03-07T13:27:55.637Z,96548.89
2018-03-07T13:30:23.213Z,96555.61
2018-03-07T13:32:52.425Z,96539.31
2018-03-07T13:35:20.305Z,96543.80
2018-03-07T13:37:47.815Z,96540.83
2018-03-07T13:40:16.852Z,96547.66
2018-03-07T13:42:44.431Z,96551.66
2018-03-07T13:45:14.282Z,96536.45
2018-03-07T13:47:44.098Z,96547.89
2018-03-07T13:50:13.210Z,96537.59
2018-03-07T13:52:43.092Z,96542.23
2018-03-07T13:55:11.607Z,96543.47
2018-03-07T13:57:39.165Z,96544.69
2018-03-07T14:00:06.801Z,96556.06
2018-03-07T14:02:34.422Z,96552.72
2018-03-07T14:05:02.566Z,96553.42
2018-03-07T14:07:30.260Z,96550.19
2018-03-07T14:09:57.772Z,96554.36
2018-03-07T14:12:26.303Z,96551.39
2018-03-07T14:14:54.245Z,96547.92
2018-03-07T14:17:22.294Z,96541.44
2018-03-07T14:19:50.454Z,96542.22
2018-03-07T14:22:18.094Z,96540.44
2018-03-07T14:24:47.235Z,96546.59
2018-03-07T14:27:32.799Z,96540.91
2018-03-07T14:30:02.341Z,96540.65
2018-03-07T14:32:31.448Z,96542.34
2018-03-07T14:35:02.275Z,96536.08
2018-03-07T14:37:30.268Z,96539.48
2018-03-07T14:39:59.574Z,96543.58
2018-03-07T14:42:28.059Z,96537.83
2018-03-07T14:44:55.805Z,96546.39
2018-03-07T14:47:25.327Z,96537.58
2018-03-07T14:49:54.330Z,96539.95
2018-03-07T14:52:22.402Z,96536.03
2018-03-07T14:54:50.995Z,96531.69
2018-03-07T14:57:19.989Z,96529.41
2018-03-07T14:59:49.290Z,96528.44
2018-03-07T15:02:18.547Z,96529.50
2018-03-07T15:04:51.588Z,96534.27
2018-03-07T15:07:21.440Z,96524.13
2018-03-07T15:09:50.973Z,96528.97
2018-03-07T15:12:19.315Z,96527.30
2018-03-07T15:14:47.255Z,96534.93
2018-03-07T15:17:14.775Z,96536.51
2018-03-07T15:22:40.824Z,96527.75
2018-03-07T15:25:08.696Z,96534.51
2018-03-07T15:27:37.472Z,96534.77
2018-03-07T15:30:06.791Z,96534.11
2018-03-07T15:32:37.189Z,96547.89
2018-03-07T15:35:07.238Z,96551.39
2018-03-07T15:37:37.046Z,96559.12
2018-03-07T15:40:05.434Z,96558.52
2018-03-07T15:42:33.969Z,96556.98
2018-03-07T15:47:59.495Z,96573.44
2018-03-07T15:50:28.834Z,96568.84
2018-03-07T15:52:57.584Z,96572.67
2018-03-07T15:55:26.571Z,96574.78
2018-03-07T15:57:55.874Z,96581.44
2018-03-07T16:00:23.730Z,96579.56
2018-03-07T16:02:51.598Z,96589.69
2018-03-07T16:05:21.047Z,96587.84
2018-03-07T16:07:50.196Z,96593.53
2018-03-07T16:10:18.019Z,96594.92
2018-03-07T16:12:46.898Z,96600.57
2018-03-07T16:15:16.424Z,96601.00
2018-03-07T16:17:44.249Z,96602.45
2018-03-07T16:20:13.279Z,96608.64
2018-03-07T16:22:41.035Z,96615.98
2018-03-07T16:31:22.650Z,96626.47
2018-03-07T16:33:50.404Z,96634.18
2018-03-07T16:36:18.220Z,96644.69
2018-03-07T16:38:47.470Z,96642.89
2018-03-07T16:41:15.351Z,96644.81
2018-03-07T16:43:44.226Z,96641.02
2018-03-07T16:46:13.786Z,96648.84
2018-03-07T16:48:41.696Z,96656.33
2018-03-07T16:51:09.608Z,96662.64
2018-03-07T16:56:39.864Z,96649.03
2018-03-07T16:59:09.587Z,96660.05
2018-03-07T17:01:39.414Z,96663.61
2018-03-07T17:04:12.445Z,96667.72
2018-03-07T17:06:40.265Z,96670.86
2018-03-07T17:09:09.532Z,96680.05
2018-03-07T17:11:38.066Z,96682.58
2018-03-07T17:14:07.553Z,96693.81
2018-03-07T17:16:36.648Z,96696.78
2018-03-07T17:19:05.275Z,96703.20
2018-03-07T17:21:33.500Z,96705.11
2018-03-07T17:24:02.762Z,96710.84
2018-03-07T17:26:34.872Z,96713.73
2018-03-07T17:29:04.911Z,96724.46
2018-03-07T17:31:33.256Z,96729.44
2018-03-07T17:34:00.731Z,96730.03
2018-03-07T17:36:29.097Z,96725.10
2018-03-07T17:39:03.492Z,96731.10
2018-03-07T17:41:31.949Z,96738.28
2018-03-07T17:44:02.378Z,96742.12
2018-03-07T17:46:30.552Z,96739.05
2018-03-07T17:48:59.206Z,96750.23
2018-03-07T17:51:28.077Z,96747.08
2018-03-07T17:53:56.742Z,96752.66
2018-03-07T17:56:25.483Z,96759.38
2018-03-07T17:58:53.827Z,96765.36
2018-03-07T18:01:22.915Z,96768.20
2018-03-07T18:03:56.983Z,96776.38
2018-03-07T18:06:26.821Z,96782.84
2018-03-07T18:08:57.034Z,96784.83
2018-03-07T18:11:26.560Z,96793.28
2018-03-07T18:13:54.087Z,96792.04
2018-03-07T18:16:21.957Z,96799.75
2018-03-07T18:18:49.653Z,96798.89
2018-03-07T18:21:18.038Z,96802.76
2018-03-07T18:23:47.317Z,96803.41
2018-03-07T18:26:17.217Z,96811.62
2018-03-07T18:28:46.204Z,96814.81
2018-03-07T18:31:15.120Z,96820.13
2018-03-07T18:33:43.645Z,96822.47
2018-03-07T18:36:12.854Z,96822.87
2018-03-07T18:38:41.102Z,96820.72
2018-03-07T18:41:09.182Z,96824.75
2018-03-07T18:49:34.210Z,96839.44
2018-03-07T18:52:04.042Z,96846.02
2018-03-07T18:54:32.825Z,96859.41
2018-03-07T18:57:00.724Z,96851.17
2018-03-07T18:59:28.522Z,96851.06
2018-03-07T19:01:56.127Z,96850.59
2018-03-07T19:04:38.310Z,96856.80
2018-03-07T19:07:05.976Z,96857.16
2018-03-07T19:09:33.768Z,96852.23
2018-03-07T19:12:01.465Z,96850.79
2018-03-07T19:14:34.450Z,96850.46
2018-03-07T19:17:02.365Z,96855.80
2018-03-07T19:19:30.303Z,96847.56
2018-03-07T19:21:57.952Z,96854.47
2018-03-07T19:24:30.008Z,96864.12
2018-03-07T19:26:57.619Z,96858.86
2018-03-07T19:29:25.188Z,96862.15
2018-03-07T19:32:03.905Z,96861.20
2018-03-07T19:37:35.171Z,96868.88
2018-03-07T19:40:05.338Z,96874.30
2018-03-07T19:42:34.318Z,96870.77
2018-03-07T19:45:04.070Z,96876.16
2018-03-07T19:47:38.410Z,96878.90
2018-03-07T19:50:24.709Z,96876.17
2018-03-07T19:52:58.119Z,96885.30
2018-03-07T19:58:19.726Z,96892.41
2018-03-07T20:00:48.662Z,96896.98
2018-03-07T20:03:17.524Z,96901.71
2018-03-07T20:11:32.773Z,96914.12
2018-03-07T20:14:09.357Z,96913.56
2018-03-07T20:16:39.389Z,96916.16
2018-03-07T20:19:07.569Z,96927.20
2018-03-07T20:21:40.056Z,96918.30
2018-03-07T20:24:15.879Z,96911.86
2018-03-07T20:26:45.803Z,96919.05
2018-03-07T20:29:14.298Z,96929.87
2018-03-07T20:31:44.395Z,96933.18
2018-03-07T20:34:13.612Z,96938.05
2018-03-07T20:36:42.591Z,96938.02
2018-03-07T20:39:10.440Z,96942.09
2018-03-07T20:41:38.950Z,96941.67
2018-03-07T20:44:06.561Z,96954.66
2018-03-07T20:46:39.351Z,96954.55
2018-03-07T20:49:08.436Z,96964.17
2018-03-07T20:51:37.413Z,96972.88
2018-03-07T20:54:05.258Z,96974.63
2018-03-07T20:56:34.920Z,96972.52
2018-03-07T20:59:03.282Z,96979.23
2018-03-07T21:01:38.829Z,96978.91
2018-03-07T21:04:07.087Z,96981.41
2018-03-07T21:06:34.736Z,96986.17
2018-03-07T21:09:09.271Z,96992.02
2018-03-07T21:11:37.833Z,96991.91
2018-03-07T21:14:11.494Z,96998.31
2018-03-07T21:16:41.157Z,96994.20
2018-03-07T21:19:10.453Z,97001.92
2018-03-07T21:21:40.262Z,97014.37
2018-03-07T21:24:13.356Z,97014.97
2018-03-07T21:26:42.232Z,97006.23
2018-03-07T21:29:09.858Z,97008.16
2018-03-07T21:31:39.258Z,97013.35
2018-03-07T21:37:10.507Z,97012.80
2018-03-07T21:39:40.332Z,97015.44
2018-03-07T21:42:08.636Z,97023.17
2018-03-07T21:47:34.286Z,97032.06
2018-03-07T21:50:03.590Z,97030.31
2018-03-07T21:52:32.733Z,97035.08
2018-03-07T21:55:00.621Z,97040.38
2018-03-07T21:57:28.144Z,97052.79
2018-03-07T21:59:57.949Z,97053.59
2018-03-07T22:02:26.184Z,97052.06
2018-03-07T22:05:11.652Z,97057.90
2018-03-07T22:07:40.637Z,97059.83
2018-03-07T22:10:09.167Z,97068.13
2018-03-07T22:12:40.709Z,97067.13
2018-03-07T22:15:11.028Z,97073.79
2018-03-07T22:17:40.044Z,97070.08
2018-03-07T22:20:08.217Z,97067.28
2018-03-07T22:22:37.717Z,97067.77
2018-03-07T22:25:06.857Z,97076.59
2018-03-07T22:27:34.710Z,97075.90
2018-03-07T22:32:54.652Z,97079.43
2018-03-07T22:35:22.380Z,97073.66
2018-03-07T22:37:50.260Z,97085.99
2018-03-07T22:40:18.722Z,97084.27
2018-03-07T22:42:48.014Z,97085.16
2018-03-07T22:45:16.438Z,97089.47
2018-03-07T22:47:44.873Z,97094.81
2018-03-07T22:50:14.145Z,97092.66
2018-03-07T22:52:43.413Z,97098.72
2018-03-07T22:55:12.524Z,97097.95
2018-03-07T22:57:40.058Z,97098.95
2018-03-07T23:00:14.585Z,97097.39
2018-03-07T23:02:43.992Z,97104.86
2018-03-07T23:05:12.865Z,97105.03
2018-03-07T23:07:40.372Z,97112.36
2018-03-07T23:10:07.913Z,97117.84
2018-03-07T23:12:35.490Z,97116.88
2018-03-07T23:15:08.311Z,97119.64
2018-03-07T23:17:36.175Z,97126.36
2018-03-07T23:20:04.729Z,97126.19
2018-03-07T23:22:34.703Z,97127.66
2018-03-07T23:28:00.482Z,97131.56
2018-03-07T23:30:28.332Z,97144.92
2018-03-07T23:32:56.616Z,97139.52
2018-03-07T23:35:24.300Z,97138.78
2018-03-07T23:37:51.901Z,97145.70
2018-03-07T23:40:20.379Z,97153.75
2018-03-07T23:42:48.343Z,97147.47
2018-03-07T23:45:15.873Z,97155.58
2018-03-07T23:47:43.454Z,97157.41
2018-03-07T23:50:11.004Z,97164.92
2018-03-07T23:52:40.234Z,97165.15
2018-03-07T23:55:09.314Z,97165.40
2018-03-07T23:57:38.674Z,97169.62
